Time;durP1;ratioP1;P1;durP2;ratioP2;P2;SDS_P1;SDS_P2;PMS_P1;PMS_P2;Temp;Humidity;BMP_temperature;BMP_pressure;BME280_temperature;BME280_humidity;BME280_pressure;Samples;Min_cycle;Max_cycle;Signal;HPM_P1;HPM_P2
2023/10/21 00:09:30;;;;;;;41.30;21.42;;;;;;;12.09;85.25;97861.56;31505343;28;20260;-62
2023/10/21 00:24:31;;;;;;;36.75;22.17;;;;;;;12.00;85.43;97833.63;31502917;28;20041;-60
2023/10/21 00:39:34;;;;;;;40.15;21.10;;;;;;;11.89;85.54;97840.63;31502181;28;23925;-61
2023/10/21 00:54:34;;;;;;;45.90;21.83;;;;;;;11.72;85.13;97864.53;31501104;28;20025;-60
2023/10/21 01:09:35;;;;;;;43.63;21.40;;;;;;;11.60;85.57;97903.72;31501331;28;20051;-63
2023/10/21 01:24:35;;;;;;;48.88;21.20;;;;;;;11.23;85.46;97943.94;31498068;28;25133;-63
2023/10/21 01:39:35;;;;;;;57.10;21.23;;;;;;;10.90;85.36;97954.06;31496155;28;22434;-61
2023/10/21 01:54:35;;;;;;;49.38;20.60;;;;;;;10.79;85.71;97955.63;31494595;28;25104;-67
2023/10/21 02:09:36;;;;;;;38.28;17.50;;;;;;;10.69;85.68;97965.22;31493632;28;30118;-61
2023/10/21 02:24:37;;;;;;;30.02;17.30;;;;;;;10.60;85.39;97999.34;31493645;28;20390;-62
2023/10/21 02:39:37;;;;;;;36.03;16.75;;;;;;;10.54;85.39;98017.03;31494920;28;20045;-65
2023/10/21 02:54:38;;;;;;;27.83;15.85;;;;;;;10.55;85.98;98012.50;31512889;28;20029;-60
2023/10/21 03:09:38;;;;;;;26.60;14.45;;;;;;;10.65;86.32;98005.59;31510942;28;20474;-59
2023/10/21 03:24:38;;;;;;;25.73;14.27;;;;;;;10.70;85.77;98012.91;31509067;28;20087;-60
2023/10/21 03:39:40;;;;;;;29.27;15.95;;;;;;;10.64;85.69;98033.25;31505920;28;20049;-60
2023/10/21 03:54:40;;;;;;;25.42;15.00;;;;;;;10.68;85.86;98049.63;31504586;28;20037;-59
2023/10/21 04:09:40;;;;;;;28.05;15.77;;;;;;;10.72;85.87;98032.16;31504148;28;20052;-64
2023/10/21 04:24:41;;;;;;;29.17;16.05;;;;;;;10.66;85.50;98051.69;31501611;28;20045;-63
2023/10/21 04:39:41;;;;;;;26.60;14.35;;;;;;;10.53;85.66;98102.44;31499065;28;20088;-60
2023/10/21 04:54:42;;;;;;;30.50;15.65;;;;;;;10.45;85.69;98140.78;31495419;28;20037;-60
2023/10/21 05:09:42;;;;;;;28.83;14.98;;;;;;;10.54;85.50;98163.44;31495425;28;20044;-61
2023/10/21 05:24:43;;;;;;;40.17;16.58;;;;;;;10.47;85.54;98166.16;31494064;28;20021;-63
2023/10/21 05:39:43;;;;;;;34.55;16.15;;;;;;;10.53;85.89;98231.03;31491722;28;23618;-63
2023/10/21 05:54:44;;;;;;;35.53;17.00;;;;;;;10.50;85.90;98258.91;31490220;28;20088;-65
2023/10/21 06:09:44;;;;;;;89.70;18.15;;;;;;;10.51;85.57;98265.03;31491800;28;20095;-62
2023/10/21 06:24:46;;;;;;;47.63;17.75;;;;;;;10.62;85.91;98277.66;31488252;28;20025;-60
2023/10/21 06:39:47;;;;;;;37.33;17.77;;;;;;;10.84;86.00;98328.69;31489170;28;20512;-60
2023/10/21 06:54:47;;;;;;;40.15;17.83;;;;;;;11.12;85.44;98345.25;31484161;28;20029;-59
2023/10/21 07:09:48;;;;;;;34.22;17.92;;;;;;;11.61;85.74;98383.53;31484434;28;20033;-60
2023/10/21 07:24:53;;;;;;;36.25;18.55;;;;;;;11.88;84.56;98419.78;31486530;28;20078;-59
2023/10/21 07:39:53;;;;;;;29.65;16.42;;;;;;;13.12;85.88;98430.09;31505810;28;20049;-61
2023/10/21 07:54:53;;;;;;;22.10;14.88;;;;;;;14.83;84.58;98459.44;31503131;28;26051;-63
2023/10/21 08:09:54;;;;;;;24.52;14.75;;;;;;;18.41;85.16;98490.91;31502090;28;20043;-63
2023/10/21 08:24:54;;;;;;;19.45;12.45;;;;;;;27.12;72.38;98514.94;31498202;28;26181;-67
2023/10/21 08:39:54;;;;;;;18.92;13.07;;;;;;;32.57;55.29;98529.00;31300838;28;97062;-64
2023/10/21 08:54:56;;;;;;;17.35;13.00;;;;;;;36.21;45.32;98564.56;30965133;28;110924;-62
2023/10/21 09:10:08;;;;;;;14.70;12.40;;;;;;;39.82;33.67;98567.97;30964605;28;97811;-66
2023/10/21 09:25:19;;;;;;;17.43;13.67;;;;;;;42.48;25.36;98563.38;30964415;28;96814;-63
2023/10/21 09:40:21;;;;;;;13.07;11.67;;;;;;;42.50;23.50;98572.13;30962920;28;96745;-69
2023/10/21 09:55:27;;;;;;;13.03;10.77;;;;;;;45.52;19.99;98571.97;30961093;28;97343;-66
2023/10/21 10:10:28;;;;;;;12.33;10.07;;;;;;;46.53;18.41;98586.41;30959456;28;97517;-61
2023/10/21 10:25:33;;;;;;;11.07;9.97;;;;;;;48.40;16.81;98587.03;30958090;28;97422;-66
2023/10/21 10:40:40;;;;;;;13.40;9.63;;;;;;;50.15;14.68;98598.53;30956397;28;96713;-61
2023/10/21 10:55:48;;;;;;;10.57;9.03;;;;;;;52.00;13.30;98607.34;30955057;28;97347;-63
2023/10/21 11:10:48;;;;;;;8.13;6.53;;;;;;;53.80;11.51;98624.13;30973528;28;97269;-62
2023/10/21 11:25:57;;;;;;;7.07;6.13;;;;;;;53.16;11.53;98618.38;30976994;28;97413;-61
2023/10/21 11:40:59;;;;;;;11.43;6.57;;;;;;;53.31;11.10;98637.41;30975225;28;97454;-61
2023/10/21 12:26:22;;;;;;;3.22;2.40;;;;;;;50.22;10.48;98671.00;30969257;28;97131;-60
2023/10/21 12:41:26;;;;;;;4.30;2.73;;;;;;;51.61;9.82;98667.13;30967323;28;97343;-60
2023/10/21 12:56:27;;;;;;;2.97;2.33;;;;;;;50.77;10.55;98698.25;30967379;28;97434;-61
2023/10/21 13:11:27;;;;;;;3.22;1.88;;;;;;;48.14;11.16;98693.00;30965309;28;97609;-63
2023/10/21 13:26:28;;;;;;;2.25;1.67;;;;;;;45.27;13.08;98694.31;30964434;28;97236;-62
2023/10/21 13:41:28;;;;;;;4.28;2.40;;;;;;;46.28;12.39;98700.66;30962056;28;96758;-60
2023/10/21 13:56:28;;;;;;;;;;;;;;;43.36;13.60;98716.25;30958539;28;96756;-62
2023/10/21 14:11:30;;;;;;;4.05;2.58;;;;;;;-147.20;100.00;63046.97;31012160;28;97476;-63
2023/10/21 14:26:32;;;;;;;4.43;2.80;;;;;;;-147.20;100.00;63046.97;31533974;28;20441;-60
2023/10/21 14:41:33;;;;;;;5.27;3.60;;;;;;;-147.20;100.00;63046.97;31544142;28;20283;-61
2023/10/21 14:56:33;;;;;;;5.00;3.10;;;;;;;-147.20;100.00;63046.97;31554224;28;20247;-63
2023/10/21 15:11:33;;;;;;;12.23;6.82;;;;;;;-147.20;100.00;63046.97;31554586;28;20500;-62
2023/10/21 15:26:34;;;;;;;;;;;;;;;-147.20;100.00;63046.97;31555471;28;20065;-61
2023/10/21 15:41:34;;;;;;;9.40;5.50;;;;;;;-147.20;100.00;63046.97;31552362;28;19952;-64
2023/10/21 15:56:36;;;;;;;8.60;5.15;;;;;;;-147.20;100.00;63046.97;31547465;28;20589;-60
2023/10/21 16:11:37;;;;;;;13.38;8.40;;;;;;;-147.20;100.00;63046.97;31546418;28;20031;-59
2023/10/21 16:26:37;;;;;;;15.63;7.97;;;;;;;-147.20;100.00;63046.97;31545780;28;20837;-59
2023/10/21 16:41:37;;;;;;;15.20;7.97;;;;;;;-147.20;100.00;63046.97;31543640;28;20056;-59
2023/10/21 16:56:38;;;;;;;13.07;7.28;;;;;;;-147.20;100.00;63046.97;31543361;28;20029;-61
2023/10/21 17:11:38;;;;;;;22.70;10.15;;;;;;;-147.20;100.00;63046.97;31542949;28;20039;-62
2023/10/21 17:26:38;;;;;;;14.25;8.27;;;;;;;-147.20;100.00;63046.97;31537152;28;20057;-60
2023/10/21 17:41:39;;;;;;;16.85;10.60;;;;;;;-147.20;100.00;63046.97;31537594;28;20045;-60
2023/10/21 17:56:39;;;;;;;20.58;10.85;;;;;;;-147.20;100.00;63046.97;31535449;28;20079;-60
2023/10/21 18:11:41;;;;;;;18.77;9.90;;;;;;;-147.20;100.00;63046.97;31532946;28;20085;-62
2023/10/21 18:26:42;;;;;;;19.42;11.35;;;;;;;-147.20;100.00;63046.97;31535214;28;20206;-63
2023/10/21 18:41:43;;;;;;;20.63;12.73;;;;;;;-147.20;100.00;63046.97;31532454;28;20064;-63
2023/10/21 18:56:44;;;;;;;27.38;16.75;;;;;;;-147.20;100.00;63046.97;31531596;28;20041;-65
2023/10/21 19:11:44;;;;;;;24.30;13.37;;;;;;;-147.20;100.00;63046.97;31531326;28;20029;-61
2023/10/21 19:26:45;;;;;;;22.27;13.40;;;;;;;-147.20;100.00;63046.97;31540800;28;20256;-60
2023/10/21 19:41:45;;;;;;;24.73;16.38;;;;;;;15.46;65.04;99031.03;31467083;28;96758;-60
2023/10/21 19:56:45;;;;;;;30.20;15.63;;;;;;;15.16;66.05;99031.03;30973020;28;109392;-60
2023/10/21 20:11:46;;;;;;;24.15;14.65;;;;;;;15.01;66.91;99028.81;30973034;28;111871;-60
2023/10/21 20:26:46;;;;;;;23.15;14.98;;;;;;;14.77;67.73;99025.19;30972026;28;97138;-60
2023/10/21 20:41:46;;;;;;;27.70;18.13;;;;;;;14.56;68.29;99011.19;30968533;28;96746;-60
2023/10/21 20:56:47;;;;;;;26.42;17.00;;;;;;;14.36;69.08;98998.03;30968865;28;99134;-61
2023/10/21 21:11:51;;;;;;;27.23;17.58;;;;;;;14.18;69.67;99004.22;30967431;28;105374;-60
2023/10/21 21:26:51;;;;;;;28.53;17.00;;;;;;;14.01;70.41;99007.50;31365424;28;97524;-60
2023/10/21 21:41:51;;;;;;;26.75;17.42;;;;;;;13.86;70.67;98991.78;31495595;28;20264;-60
2023/10/21 21:56:52;;;;;;;34.65;19.42;;;;;;;13.77;71.38;98960.16;31495101;28;20037;-60
2023/10/21 22:11:52;;;;;;;26.52;17.00;;;;;;;13.66;71.89;98969.75;31494303;28;20174;-60
2023/10/21 22:26:54;;;;;;;28.38;17.67;;;;;;;13.59;72.24;98979.69;31492478;28;20045;-60
2023/10/21 22:41:56;;;;;;;29.00;17.73;;;;;;;13.61;72.72;98977.59;31492280;28;20056;-59
2023/10/21 22:56:56;;;;;;;28.92;17.65;;;;;;;13.54;73.00;98957.09;31494702;28;20049;-61
2023/10/21 23:11:57;;;;;;;29.05;19.60;;;;;;;13.62;73.49;98965.88;31512099;28;20438;-59
2023/10/21 23:26:57;;;;;;;30.63;18.80;;;;;;;13.73;73.91;98975.03;31510595;28;20394;-60
2023/10/21 23:41:57;;;;;;;29.63;18.30;;;;;;;13.74;73.94;98958.75;31508308;28;23749;-60
2023/10/21 23:56:58;;;;;;;31.58;18.88;;;;;;;13.81;74.23;98978.22;31508718;28;26130;-60
